sensor_id;sensor_type;location;lat;lon;timestamp;temperature;humidity
21216;DHT22;10765;50.954;5.322;2024-01-25T00:00:54;8.80;99.90
21216;DHT22;10765;50.954;5.322;2024-01-25T00:03:21;8.80;1.00
21216;DHT22;10765;50.954;5.322;2024-01-25T00:05:48;8.80;1.00
21216;DHT22;10765;50.954;5.322;2024-01-25T00:08:15;8.90;99.90
21216;DHT22;10765;50.954;5.322;2024-01-25T00:10:42;8.90;99.90
21216;DHT22;10765;50.954;5.322;2024-01-25T00:13:09;8.90;99.90
21216;DHT22;10765;50.954;5.322;2024-01-25T00:15:36;8.90;39.40
21216;DHT22;10765;50.954;5.322;2024-01-25T00:18:04;8.90;99.90
21216;DHT22;10765;50.954;5.322;2024-01-25T00:20:31;8.80;99.90
21216;DHT22;10765;50.954;5.322;2024-01-25T00:22:57;8.70;99.90
21216;DHT22;10765;50.954;5.322;2024-01-25T00:25:26;8.80;99.90
21216;DHT22;10765;50.954;5.322;2024-01-25T00:27:53;8.90;99.90
21216;DHT22;10765;50.954;5.322;2024-01-25T00:30:20;8.80;94.00
21216;DHT22;10765;50.954;5.322;2024-01-25T00:32:48;8.70;1.00
21216;DHT22;10765;50.954;5.322;2024-01-25T00:35:16;8.60;99.90
21216;DHT22;10765;50.954;5.322;2024-01-25T00:37:43;8.40;1.00
21216;DHT22;10765;50.954;5.322;2024-01-25T00:40:11;8.30;29.60
21216;DHT22;10765;50.954;5.322;2024-01-25T00:42:42;8.20;99.90
21216;DHT22;10765;50.954;5.322;2024-01-25T00:45:10;8.20;99.90
21216;DHT22;10765;50.954;5.322;2024-01-25T00:47:37;8.20;38.50
21216;DHT22;10765;50.954;5.322;2024-01-25T00:50:06;8.30;1.00
21216;DHT22;10765;50.954;5.322;2024-01-25T00:52:33;8.40;1.00
21216;DHT22;10765;50.954;5.322;2024-01-25T00:55:01;8.40;1.00
21216;DHT22;10765;50.954;5.322;2024-01-25T00:57:29;8.40;1.00
21216;DHT22;10765;50.954;5.322;2024-01-25T00:59:58;8.40;1.00
21216;DHT22;10765;50.954;5.322;2024-01-25T01:02:27;8.30;99.90
21216;DHT22;10765;50.954;5.322;2024-01-25T01:04:57;8.30;1.00
21216;DHT22;10765;50.954;5.322;2024-01-25T01:07:24;8.30;99.90
21216;DHT22;10765;50.954;5.322;2024-01-25T01:09:51;8.30;99.90
21216;DHT22;10765;50.954;5.322;2024-01-25T01:12:18;8.30;99.90
21216;DHT22;10765;50.954;5.322;2024-01-25T01:14:45;8.30;1.00
21216;DHT22;10765;50.954;5.322;2024-01-25T01:17:13;8.40;99.90
21216;DHT22;10765;50.954;5.322;2024-01-25T01:19:40;8.40;44.80
21216;DHT22;10765;50.954;5.322;2024-01-25T01:22:07;8.30;1.00
21216;DHT22;10765;50.954;5.322;2024-01-25T01:24:34;8.20;99.90
21216;DHT22;10765;50.954;5.322;2024-01-25T01:27:01;8.10;1.00
21216;DHT22;10765;50.954;5.322;2024-01-25T01:29:28;8.00;1.00
21216;DHT22;10765;50.954;5.322;2024-01-25T01:31:54;7.90;99.90
21216;DHT22;10765;50.954;5.322;2024-01-25T01:34:23;7.80;1.00
21216;DHT22;10765;50.954;5.322;2024-01-25T01:36:50;7.70;99.90
21216;DHT22;10765;50.954;5.322;2024-01-25T01:39:16;7.70;1.00
21216;DHT22;10765;50.954;5.322;2024-01-25T01:41:47;7.70;99.90
21216;DHT22;10765;50.954;5.322;2024-01-25T01:44:14;7.60;1.00
21216;DHT22;10765;50.954;5.322;2024-01-25T01:46:41;7.50;1.00
21216;DHT22;10765;50.954;5.322;2024-01-25T01:49:10;7.50;1.00
21216;DHT22;10765;50.954;5.322;2024-01-25T01:51:40;7.50;99.90
21216;DHT22;10765;50.954;5.322;2024-01-25T01:54:08;7.40;99.90
21216;DHT22;10765;50.954;5.322;2024-01-25T01:56:35;7.30;99.90
21216;DHT22;10765;50.954;5.322;2024-01-25T01:59:04;7.20;1.00
21216;DHT22;10765;50.954;5.322;2024-01-25T02:01:32;7.20;1.00
21216;DHT22;10765;50.954;5.322;2024-01-25T02:03:59;7.10;1.00
21216;DHT22;10765;50.954;5.322;2024-01-25T02:06:26;7.20;1.00
21216;DHT22;10765;50.954;5.322;2024-01-25T02:08:54;7.10;1.00
21216;DHT22;10765;50.954;5.322;2024-01-25T02:11:24;7.00;1.00
21216;DHT22;10765;50.954;5.322;2024-01-25T02:13:51;7.10;42.90
21216;DHT22;10765;50.954;5.322;2024-01-25T02:16:17;7.00;59.50
21216;DHT22;10765;50.954;5.322;2024-01-25T02:18:45;7.00;31.80
21216;DHT22;10765;50.954;5.322;2024-01-25T02:21:12;6.90;13.30
21216;DHT22;10765;50.954;5.322;2024-01-25T02:23:40;6.90;99.90
21216;DHT22;10765;50.954;5.322;2024-01-25T02:26:07;6.80;90.80
21216;DHT22;10765;50.954;5.322;2024-01-25T02:28:43;6.80;99.90
21216;DHT22;10765;50.954;5.322;2024-01-25T02:31:10;6.90;99.90
21216;DHT22;10765;50.954;5.322;2024-01-25T02:33:37;6.90;99.90
21216;DHT22;10765;50.954;5.322;2024-01-25T02:36:04;6.80;90.50
21216;DHT22;10765;50.954;5.322;2024-01-25T02:38:31;6.80;44.70
21216;DHT22;10765;50.954;5.322;2024-01-25T02:40:58;6.80;1.00
21216;DHT22;10765;50.954;5.322;2024-01-25T02:43:25;6.80;1.00
21216;DHT22;10765;50.954;5.322;2024-01-25T02:45:54;6.70;1.00
21216;DHT22;10765;50.954;5.322;2024-01-25T02:48:20;6.60;31.30
21216;DHT22;10765;50.954;5.322;2024-01-25T02:50:47;6.60;13.50
21216;DHT22;10765;50.954;5.322;2024-01-25T02:53:14;6.50;99.90
21216;DHT22;10765;50.954;5.322;2024-01-25T02:55:41;6.40;1.00
21216;DHT22;10765;50.954;5.322;2024-01-25T02:58:08;6.40;1.00
21216;DHT22;10765;50.954;5.322;2024-01-25T03:00:35;6.30;1.00
21216;DHT22;10765;50.954;5.322;2024-01-25T03:03:03;6.20;1.00
21216;DHT22;10765;50.954;5.322;2024-01-25T03:05:30;6.20;1.00
21216;DHT22;10765;50.954;5.322;2024-01-25T03:07:57;6.10;1.00
21216;DHT22;10765;50.954;5.322;2024-01-25T03:10:24;6.10;1.00
21216;DHT22;10765;50.954;5.322;2024-01-25T03:12:51;5.90;1.00
21216;DHT22;10765;50.954;5.322;2024-01-25T03:15:18;5.90;1.00
21216;DHT22;10765;50.954;5.322;2024-01-25T03:17:45;5.80;1.00
21216;DHT22;10765;50.954;5.322;2024-01-25T03:20:13;5.70;1.00
21216;DHT22;10765;50.954;5.322;2024-01-25T03:22:40;5.70;99.90
21216;DHT22;10765;50.954;5.322;2024-01-25T03:25:08;5.60;99.90
21216;DHT22;10765;50.954;5.322;2024-01-25T03:27:35;5.50;99.90
21216;DHT22;10765;50.954;5.322;2024-01-25T03:30:02;5.40;1.00
21216;DHT22;10765;50.954;5.322;2024-01-25T03:32:30;5.30;1.00
21216;DHT22;10765;50.954;5.322;2024-01-25T03:34:57;5.40;1.00
21216;DHT22;10765;50.954;5.322;2024-01-25T03:37:26;5.30;99.90
21216;DHT22;10765;50.954;5.322;2024-01-25T03:39:52;5.20;1.00
21216;DHT22;10765;50.954;5.322;2024-01-25T03:42:19;5.10;1.00
21216;DHT22;10765;50.954;5.322;2024-01-25T03:44:46;5.20;99.90
21216;DHT22;10765;50.954;5.322;2024-01-25T03:47:13;5.20;99.90
21216;DHT22;10765;50.954;5.322;2024-01-25T03:49:40;5.10;1.00
21216;DHT22;10765;50.954;5.322;2024-01-25T03:52:07;5.10;99.90
21216;DHT22;10765;50.954;5.322;2024-01-25T03:54:35;5.00;1.00
21216;DHT22;10765;50.954;5.322;2024-01-25T03:57:03;5.00;1.00
21216;DHT22;10765;50.954;5.322;2024-01-25T03:59:30;4.90;1.00
21216;DHT22;10765;50.954;5.322;2024-01-25T04:01:57;4.90;99.90
21216;DHT22;10765;50.954;5.322;2024-01-25T04:04:24;4.80;4.90
21216;DHT22;10765;50.954;5.322;2024-01-25T04:06:51;4.80;1.00
21216;DHT22;10765;50.954;5.322;2024-01-25T04:09:18;4.80;31.50
21216;DHT22;10765;50.954;5.322;2024-01-25T04:11:46;4.70;99.90
21216;DHT22;10765;50.954;5.322;2024-01-25T04:14:13;4.70;1.00
21216;DHT22;10765;50.954;5.322;2024-01-25T04:16:41;4.70;99.90
21216;DHT22;10765;50.954;5.322;2024-01-25T04:19:08;4.60;1.00
21216;DHT22;10765;50.954;5.322;2024-01-25T04:21:37;4.50;99.90
21216;DHT22;10765;50.954;5.322;2024-01-25T04:24:05;4.50;99.90
21216;DHT22;10765;50.954;5.322;2024-01-25T04:26:32;4.40;99.90
21216;DHT22;10765;50.954;5.322;2024-01-25T04:29:00;4.50;99.90
21216;DHT22;10765;50.954;5.322;2024-01-25T04:31:27;4.40;99.90
21216;DHT22;10765;50.954;5.322;2024-01-25T04:33:54;4.30;99.90
21216;DHT22;10765;50.954;5.322;2024-01-25T04:36:21;4.40;75.30
21216;DHT22;10765;50.954;5.322;2024-01-25T04:38:48;4.30;99.90
21216;DHT22;10765;50.954;5.322;2024-01-25T04:41:14;4.30;99.90
21216;DHT22;10765;50.954;5.322;2024-01-25T04:43:41;4.30;1.00
21216;DHT22;10765;50.954;5.322;2024-01-25T04:46:10;4.30;1.00
21216;DHT22;10765;50.954;5.322;2024-01-25T04:48:37;4.30;1.00
21216;DHT22;10765;50.954;5.322;2024-01-25T04:51:05;4.40;99.90
21216;DHT22;10765;50.954;5.322;2024-01-25T04:53:32;4.40;99.90
21216;DHT22;10765;50.954;5.322;2024-01-25T04:55:59;4.40;99.90
21216;DHT22;10765;50.954;5.322;2024-01-25T04:58:26;4.50;1.00
21216;DHT22;10765;50.954;5.322;2024-01-25T05:00:53;4.40;1.00
21216;DHT22;10765;50.954;5.322;2024-01-25T05:03:22;4.30;99.90
21216;DHT22;10765;50.954;5.322;2024-01-25T05:05:49;4.20;99.90
21216;DHT22;10765;50.954;5.322;2024-01-25T05:08:16;4.20;1.00
21216;DHT22;10765;50.954;5.322;2024-01-25T05:10:43;4.20;99.90
21216;DHT22;10765;50.954;5.322;2024-01-25T05:13:10;4.20;99.90
21216;DHT22;10765;50.954;5.322;2024-01-25T05:15:37;4.20;1.00
21216;DHT22;10765;50.954;5.322;2024-01-25T05:18:04;4.10;1.00
21216;DHT22;10765;50.954;5.322;2024-01-25T05:20:33;4.10;1.00
21216;DHT22;10765;50.954;5.322;2024-01-25T05:23:03;4.10;99.90
21216;DHT22;10765;50.954;5.322;2024-01-25T05:25:30;4.20;1.00
21216;DHT22;10765;50.954;5.322;2024-01-25T05:27:58;4.40;1.00
21216;DHT22;10765;50.954;5.322;2024-01-25T05:30:25;4.30;99.90
21216;DHT22;10765;50.954;5.322;2024-01-25T05:32:52;4.10;99.90
21216;DHT22;10765;50.954;5.322;2024-01-25T05:35:20;4.00;78.10
21216;DHT22;10765;50.954;5.322;2024-01-25T05:37:48;4.00;99.90
21216;DHT22;10765;50.954;5.322;2024-01-25T05:40:15;4.10;1.00
21216;DHT22;10765;50.954;5.322;2024-01-25T05:42:43;4.00;99.90
21216;DHT22;10765;50.954;5.322;2024-01-25T05:45:10;3.90;99.90
21216;DHT22;10765;50.954;5.322;2024-01-25T05:47:37;4.00;25.40
21216;DHT22;10765;50.954;5.322;2024-01-25T05:50:05;4.10;99.90
21216;DHT22;10765;50.954;5.322;2024-01-25T05:52:32;4.00;99.90
21216;DHT22;10765;50.954;5.322;2024-01-25T05:55:04;4.00;99.90
21216;DHT22;10765;50.954;5.322;2024-01-25T05:57:31;3.90;99.90
21216;DHT22;10765;50.954;5.322;2024-01-25T06:00:00;4.00;99.90
21216;DHT22;10765;50.954;5.322;2024-01-25T06:02:26;4.00;99.90
21216;DHT22;10765;50.954;5.322;2024-01-25T06:04:53;4.00;99.90
21216;DHT22;10765;50.954;5.322;2024-01-25T06:07:20;4.10;99.90
21216;DHT22;10765;50.954;5.322;2024-01-25T06:09:48;4.30;99.90
21216;DHT22;10765;50.954;5.322;2024-01-25T06:12:16;4.30;99.90
21216;DHT22;10765;50.954;5.322;2024-01-25T06:14:43;4.20;99.90
21216;DHT22;10765;50.954;5.322;2024-01-25T06:17:10;4.00;99.90
21216;DHT22;10765;50.954;5.322;2024-01-25T06:19:37;3.80;99.90
21216;DHT22;10765;50.954;5.322;2024-01-25T06:22:04;3.80;99.90
21216;DHT22;10765;50.954;5.322;2024-01-25T06:24:32;3.90;99.90
21216;DHT22;10765;50.954;5.322;2024-01-25T06:26:58;3.90;99.90
21216;DHT22;10765;50.954;5.322;2024-01-25T06:29:27;3.90;99.90
21216;DHT22;10765;50.954;5.322;2024-01-25T06:31:53;3.80;99.90
21216;DHT22;10765;50.954;5.322;2024-01-25T06:34:20;3.70;99.90
21216;DHT22;10765;50.954;5.322;2024-01-25T06:36:47;3.70;99.90
21216;DHT22;10765;50.954;5.322;2024-01-25T06:39:14;3.80;99.90
21216;DHT22;10765;50.954;5.322;2024-01-25T06:41:41;4.00;99.90
21216;DHT22;10765;50.954;5.322;2024-01-25T06:44:08;4.10;99.90
21216;DHT22;10765;50.954;5.322;2024-01-25T06:46:37;4.10;99.90
21216;DHT22;10765;50.954;5.322;2024-01-25T06:49:03;4.00;99.90
21216;DHT22;10765;50.954;5.322;2024-01-25T06:51:30;3.90;99.90
21216;DHT22;10765;50.954;5.322;2024-01-25T06:53:57;3.90;99.90
21216;DHT22;10765;50.954;5.322;2024-01-25T06:56:24;3.90;99.90
21216;DHT22;10765;50.954;5.322;2024-01-25T06:58:51;4.00;99.90
21216;DHT22;10765;50.954;5.322;2024-01-25T07:01:20;4.20;99.90
21216;DHT22;10765;50.954;5.322;2024-01-25T07:03:49;4.20;99.90
21216;DHT22;10765;50.954;5.322;2024-01-25T07:06:16;4.20;99.90
21216;DHT22;10765;50.954;5.322;2024-01-25T07:08:44;4.20;99.90
21216;DHT22;10765;50.954;5.322;2024-01-25T07:11:11;4.20;99.90
21216;DHT22;10765;50.954;5.322;2024-01-25T07:13:38;4.20;99.90
21216;DHT22;10765;50.954;5.322;2024-01-25T07:16:05;4.40;99.90
21216;DHT22;10765;50.954;5.322;2024-01-25T07:18:32;4.40;99.90
21216;DHT22;10765;50.954;5.322;2024-01-25T07:21:00;4.40;99.90
21216;DHT22;10765;50.954;5.322;2024-01-25T07:23:29;4.40;99.90
21216;DHT22;10765;50.954;5.322;2024-01-25T07:25:56;4.40;99.90
21216;DHT22;10765;50.954;5.322;2024-01-25T07:28:23;4.30;99.90
21216;DHT22;10765;50.954;5.322;2024-01-25T07:30:50;4.40;99.90
21216;DHT22;10765;50.954;5.322;2024-01-25T07:33:17;4.50;99.90
21216;DHT22;10765;50.954;5.322;2024-01-25T07:35:44;4.60;99.90
21216;DHT22;10765;50.954;5.322;2024-01-25T07:38:13;4.60;99.90
21216;DHT22;10765;50.954;5.322;2024-01-25T07:40:41;4.70;99.90
21216;DHT22;10765;50.954;5.322;2024-01-25T07:43:08;4.80;99.90
21216;DHT22;10765;50.954;5.322;2024-01-25T07:45:34;4.80;99.90
21216;DHT22;10765;50.954;5.322;2024-01-25T07:48:01;4.90;99.90
21216;DHT22;10765;50.954;5.322;2024-01-25T07:50:28;4.90;99.90
21216;DHT22;10765;50.954;5.322;2024-01-25T07:52:55;5.00;99.90
21216;DHT22;10765;50.954;5.322;2024-01-25T07:55:24;5.00;99.90
21216;DHT22;10765;50.954;5.322;2024-01-25T07:57:50;5.20;99.90
21216;DHT22;10765;50.954;5.322;2024-01-25T08:00:18;5.20;99.90
21216;DHT22;10765;50.954;5.322;2024-01-25T08:02:45;5.20;99.90
21216;DHT22;10765;50.954;5.322;2024-01-25T08:05:12;5.20;99.90
21216;DHT22;10765;50.954;5.322;2024-01-25T08:07:39;5.50;99.90
21216;DHT22;10765;50.954;5.322;2024-01-25T08:10:07;5.70;99.90
21216;DHT22;10765;50.954;5.322;2024-01-25T08:12:35;5.90;99.90
21216;DHT22;10765;50.954;5.322;2024-01-25T08:15:06;6.10;99.90
21216;DHT22;10765;50.954;5.322;2024-01-25T08:17:32;6.20;99.90
21216;DHT22;10765;50.954;5.322;2024-01-25T08:20:01;6.30;99.90
21216;DHT22;10765;50.954;5.322;2024-01-25T08:22:29;6.30;99.90
21216;DHT22;10765;50.954;5.322;2024-01-25T08:24:56;6.90;99.90
21216;DHT22;10765;50.954;5.322;2024-01-25T08:27:23;7.20;99.90
21216;DHT22;10765;50.954;5.322;2024-01-25T08:29:52;7.70;99.90
21216;DHT22;10765;50.954;5.322;2024-01-25T08:32:18;7.90;99.90
21216;DHT22;10765;50.954;5.322;2024-01-25T08:34:45;7.90;99.90
21216;DHT22;10765;50.954;5.322;2024-01-25T08:37:12;8.00;99.90
21216;DHT22;10765;50.954;5.322;2024-01-25T08:39:45;8.30;99.90
21216;DHT22;10765;50.954;5.322;2024-01-25T08:42:16;8.40;99.90
21216;DHT22;10765;50.954;5.322;2024-01-25T08:44:42;8.30;99.90
21216;DHT22;10765;50.954;5.322;2024-01-25T08:47:16;8.00;99.90
21216;DHT22;10765;50.954;5.322;2024-01-25T08:49:43;7.60;99.90
21216;DHT22;10765;50.954;5.322;2024-01-25T08:52:10;7.50;99.90
21216;DHT22;10765;50.954;5.322;2024-01-25T08:54:37;7.60;99.90
21216;DHT22;10765;50.954;5.322;2024-01-25T08:57:05;7.50;99.90
21216;DHT22;10765;50.954;5.322;2024-01-25T08:59:32;7.40;99.90
21216;DHT22;10765;50.954;5.322;2024-01-25T09:02:00;7.50;99.90
21216;DHT22;10765;50.954;5.322;2024-01-25T09:04:30;7.50;99.90
21216;DHT22;10765;50.954;5.322;2024-01-25T09:06:57;7.50;99.90
21216;DHT22;10765;50.954;5.322;2024-01-25T09:09:24;7.50;99.90
21216;DHT22;10765;50.954;5.322;2024-01-25T09:11:51;7.60;99.90
21216;DHT22;10765;50.954;5.322;2024-01-25T09:14:18;7.60;99.90
21216;DHT22;10765;50.954;5.322;2024-01-25T09:16:45;7.70;99.90
21216;DHT22;10765;50.954;5.322;2024-01-25T09:19:12;7.60;99.90
21216;DHT22;10765;50.954;5.322;2024-01-25T09:21:40;7.60;99.90
21216;DHT22;10765;50.954;5.322;2024-01-25T09:24:07;7.50;99.90
21216;DHT22;10765;50.954;5.322;2024-01-25T09:26:34;7.40;99.90
21216;DHT22;10765;50.954;5.322;2024-01-25T09:29:01;7.30;99.90
21216;DHT22;10765;50.954;5.322;2024-01-25T09:31:28;7.30;99.90
21216;DHT22;10765;50.954;5.322;2024-01-25T09:33:55;7.30;99.90
21216;DHT22;10765;50.954;5.322;2024-01-25T09:36:22;7.50;99.90
21216;DHT22;10765;50.954;5.322;2024-01-25T09:38:50;7.60;99.90
21216;DHT22;10765;50.954;5.322;2024-01-25T09:41:17;7.60;99.90
21216;DHT22;10765;50.954;5.322;2024-01-25T09:43:45;7.60;99.90
21216;DHT22;10765;50.954;5.322;2024-01-25T09:46:13;7.70;99.90
21216;DHT22;10765;50.954;5.322;2024-01-25T09:48:41;7.60;99.90
21216;DHT22;10765;50.954;5.322;2024-01-25T09:51:09;7.70;99.90
21216;DHT22;10765;50.954;5.322;2024-01-25T09:53:39;7.80;99.90
21216;DHT22;10765;50.954;5.322;2024-01-25T09:56:10;7.60;99.90
21216;DHT22;10765;50.954;5.322;2024-01-25T09:58:38;7.60;99.90
21216;DHT22;10765;50.954;5.322;2024-01-25T10:01:08;7.70;99.90
21216;DHT22;10765;50.954;5.322;2024-01-25T10:03:36;7.90;99.90
21216;DHT22;10765;50.954;5.322;2024-01-25T10:06:06;8.00;99.90
21216;DHT22;10765;50.954;5.322;2024-01-25T10:08:33;8.00;99.90
21216;DHT22;10765;50.954;5.322;2024-01-25T10:10:59;8.00;99.90
21216;DHT22;10765;50.954;5.322;2024-01-25T10:13:28;8.20;99.90
21216;DHT22;10765;50.954;5.322;2024-01-25T10:15:55;8.20;99.90
21216;DHT22;10765;50.954;5.322;2024-01-25T10:18:22;8.20;99.90
21216;DHT22;10765;50.954;5.322;2024-01-25T10:20:49;8.20;99.90
21216;DHT22;10765;50.954;5.322;2024-01-25T10:23:16;8.40;99.90
21216;DHT22;10765;50.954;5.322;2024-01-25T10:25:43;8.60;99.90
21216;DHT22;10765;50.954;5.322;2024-01-25T10:28:10;8.60;99.90
21216;DHT22;10765;50.954;5.322;2024-01-25T10:30:40;8.50;99.90
21216;DHT22;10765;50.954;5.322;2024-01-25T10:33:09;8.60;99.90
21216;DHT22;10765;50.954;5.322;2024-01-25T10:35:37;8.80;99.90
21216;DHT22;10765;50.954;5.322;2024-01-25T10:38:05;8.70;99.90
21216;DHT22;10765;50.954;5.322;2024-01-25T10:40:32;8.80;99.90
21216;DHT22;10765;50.954;5.322;2024-01-25T10:42:59;8.60;99.90
21216;DHT22;10765;50.954;5.322;2024-01-25T10:45:26;8.50;1.00
21216;DHT22;10765;50.954;5.322;2024-01-25T10:47:55;8.40;1.00
21216;DHT22;10765;50.954;5.322;2024-01-25T10:50:22;8.50;1.00
21216;DHT22;10765;50.954;5.322;2024-01-25T10:52:51;8.60;1.00
21216;DHT22;10765;50.954;5.322;2024-01-25T10:55:18;8.70;1.00
21216;DHT22;10765;50.954;5.322;2024-01-25T10:57:45;8.80;99.90
21216;DHT22;10765;50.954;5.322;2024-01-25T11:00:14;8.70;1.00
21216;DHT22;10765;50.954;5.322;2024-01-25T11:02:43;8.70;99.90
21216;DHT22;10765;50.954;5.322;2024-01-25T11:05:12;8.70;1.00
21216;DHT22;10765;50.954;5.322;2024-01-25T11:07:43;8.70;7.30
21216;DHT22;10765;50.954;5.322;2024-01-25T11:10:18;8.90;35.80
21216;DHT22;10765;50.954;5.322;2024-01-25T11:12:49;9.10;1.00
21216;DHT22;10765;50.954;5.322;2024-01-25T11:15:20;9.10;99.90
21216;DHT22;10765;50.954;5.322;2024-01-25T11:17:52;9.00;1.00
21216;DHT22;10765;50.954;5.322;2024-01-25T11:20:24;9.10;99.90
21216;DHT22;10765;50.954;5.322;2024-01-25T11:22:56;9.30;99.90
21216;DHT22;10765;50.954;5.322;2024-01-25T11:25:24;9.70;1.00
21216;DHT22;10765;50.954;5.322;2024-01-25T11:27:53;9.90;1.00
21216;DHT22;10765;50.954;5.322;2024-01-25T11:30:20;10.30;99.90
21216;DHT22;10765;50.954;5.322;2024-01-25T11:32:48;10.70;1.00
21216;DHT22;10765;50.954;5.322;2024-01-25T11:35:15;10.80;1.00
21216;DHT22;10765;50.954;5.322;2024-01-25T11:37:46;10.80;99.90
21216;DHT22;10765;50.954;5.322;2024-01-25T11:40:14;11.10;99.90
21216;DHT22;10765;50.954;5.322;2024-01-25T11:42:43;11.30;28.40
21216;DHT22;10765;50.954;5.322;2024-01-25T11:45:11;11.30;1.00
21216;DHT22;10765;50.954;5.322;2024-01-25T11:47:38;11.10;1.00
21216;DHT22;10765;50.954;5.322;2024-01-25T11:50:06;11.30;99.90
21216;DHT22;10765;50.954;5.322;2024-01-25T11:52:34;11.40;1.00
21216;DHT22;10765;50.954;5.322;2024-01-25T11:55:04;11.40;1.00
21216;DHT22;10765;50.954;5.322;2024-01-25T11:57:34;11.50;1.00
21216;DHT22;10765;50.954;5.322;2024-01-25T12:00:02;11.50;1.00
21216;DHT22;10765;50.954;5.322;2024-01-25T12:02:30;11.60;1.00
21216;DHT22;10765;50.954;5.322;2024-01-25T12:04:58;11.60;1.00
21216;DHT22;10765;50.954;5.322;2024-01-25T12:07:25;11.60;1.00
21216;DHT22;10765;50.954;5.322;2024-01-25T12:09:59;11.60;1.00
21216;DHT22;10765;50.954;5.322;2024-01-25T12:12:27;11.60;1.00
21216;DHT22;10765;50.954;5.322;2024-01-25T12:14:58;11.70;1.00
21216;DHT22;10765;50.954;5.322;2024-01-25T12:17:26;11.80;1.00
21216;DHT22;10765;50.954;5.322;2024-01-25T12:19:55;11.90;99.90
21216;DHT22;10765;50.954;5.322;2024-01-25T12:22:22;12.10;99.90
21216;DHT22;10765;50.954;5.322;2024-01-25T12:24:52;12.00;99.90
21216;DHT22;10765;50.954;5.322;2024-01-25T12:27:20;12.00;99.90
21216;DHT22;10765;50.954;5.322;2024-01-25T12:29:49;11.90;99.90
21216;DHT22;10765;50.954;5.322;2024-01-25T12:32:16;11.90;99.90
21216;DHT22;10765;50.954;5.322;2024-01-25T12:34:52;12.00;99.90
21216;DHT22;10765;50.954;5.322;2024-01-25T12:37:19;11.80;99.90
21216;DHT22;10765;50.954;5.322;2024-01-25T12:39:46;11.70;99.90
21216;DHT22;10765;50.954;5.322;2024-01-25T12:42:13;11.70;99.90
21216;DHT22;10765;50.954;5.322;2024-01-25T12:44:40;11.80;99.90
21216;DHT22;10765;50.954;5.322;2024-01-25T12:47:08;11.80;99.90
21216;DHT22;10765;50.954;5.322;2024-01-25T12:49:35;11.60;99.90
21216;DHT22;10765;50.954;5.322;2024-01-25T12:52:02;11.60;1.00
21216;DHT22;10765;50.954;5.322;2024-01-25T12:54:29;11.50;99.90
21216;DHT22;10765;50.954;5.322;2024-01-25T12:56:57;11.30;99.90
21216;DHT22;10765;50.954;5.322;2024-01-25T12:59:24;11.30;1.00
21216;DHT22;10765;50.954;5.322;2024-01-25T13:01:50;11.30;1.00
21216;DHT22;10765;50.954;5.322;2024-01-25T13:04:19;11.30;1.00
21216;DHT22;10765;50.954;5.322;2024-01-25T13:06:48;10.90;1.00
21216;DHT22;10765;50.954;5.322;2024-01-25T13:09:15;10.70;1.00
21216;DHT22;10765;50.954;5.322;2024-01-25T13:11:42;10.40;99.90
21216;DHT22;10765;50.954;5.322;2024-01-25T13:14:09;10.30;99.90
21216;DHT22;10765;50.954;5.322;2024-01-25T13:16:36;10.20;1.00
21216;DHT22;10765;50.954;5.322;2024-01-25T13:19:02;10.20;1.00
21216;DHT22;10765;50.954;5.322;2024-01-25T13:21:31;10.20;1.00
21216;DHT22;10765;50.954;5.322;2024-01-25T13:23:59;9.90;16.40
21216;DHT22;10765;50.954;5.322;2024-01-25T13:26:26;9.80;1.00
21216;DHT22;10765;50.954;5.322;2024-01-25T13:28:53;9.80;1.00
21216;DHT22;10765;50.954;5.322;2024-01-25T13:31:20;9.90;1.00
21216;DHT22;10765;50.954;5.322;2024-01-25T13:33:47;10.10;1.00
21216;DHT22;10765;50.954;5.322;2024-01-25T13:36:14;9.90;1.00
21216;DHT22;10765;50.954;5.322;2024-01-25T13:38:42;9.90;99.90
21216;DHT22;10765;50.954;5.322;2024-01-25T13:41:09;9.90;99.90
21216;DHT22;10765;50.954;5.322;2024-01-25T13:43:36;9.90;99.90
21216;DHT22;10765;50.954;5.322;2024-01-25T13:46:03;10.00;1.00
21216;DHT22;10765;50.954;5.322;2024-01-25T13:48:29;9.90;1.00
21216;DHT22;10765;50.954;5.322;2024-01-25T13:50:56;9.90;1.00
21216;DHT22;10765;50.954;5.322;2024-01-25T13:53:24;9.90;99.90
21216;DHT22;10765;50.954;5.322;2024-01-25T13:55:52;9.80;99.90
21216;DHT22;10765;50.954;5.322;2024-01-25T13:58:19;9.70;1.00
21216;DHT22;10765;50.954;5.322;2024-01-25T14:00:46;9.70;1.00
21216;DHT22;10765;50.954;5.322;2024-01-25T14:03:14;9.70;1.00
21216;DHT22;10765;50.954;5.322;2024-01-25T14:05:41;9.80;1.00
21216;DHT22;10765;50.954;5.322;2024-01-25T14:08:08;9.70;1.00
21216;DHT22;10765;50.954;5.322;2024-01-25T14:10:35;9.70;1.00
21216;DHT22;10765;50.954;5.322;2024-01-25T14:13:03;9.70;1.00
21216;DHT22;10765;50.954;5.322;2024-01-25T14:15:30;9.70;1.00
21216;DHT22;10765;50.954;5.322;2024-01-25T14:17:57;9.70;1.00
21216;DHT22;10765;50.954;5.322;2024-01-25T14:20:24;9.60;1.00
21216;DHT22;10765;50.954;5.322;2024-01-25T14:22:51;9.60;54.90
21216;DHT22;10765;50.954;5.322;2024-01-25T14:25:18;9.60;67.70
21216;DHT22;10765;50.954;5.322;2024-01-25T14:27:45;9.60;98.30
21216;DHT22;10765;50.954;5.322;2024-01-25T14:30:15;9.60;99.90
21216;DHT22;10765;50.954;5.322;2024-01-25T14:32:42;9.50;99.90
21216;DHT22;10765;50.954;5.322;2024-01-25T14:35:09;9.60;99.90
21216;DHT22;10765;50.954;5.322;2024-01-25T14:37:36;9.70;99.90
21216;DHT22;10765;50.954;5.322;2024-01-25T14:40:03;9.60;99.90
21216;DHT22;10765;50.954;5.322;2024-01-25T14:42:30;9.60;99.90
21216;DHT22;10765;50.954;5.322;2024-01-25T14:44:57;9.70;99.90
21216;DHT22;10765;50.954;5.322;2024-01-25T14:47:25;9.70;99.90
21216;DHT22;10765;50.954;5.322;2024-01-25T14:49:52;9.70;99.90
21216;DHT22;10765;50.954;5.322;2024-01-25T14:52:19;9.70;99.90
21216;DHT22;10765;50.954;5.322;2024-01-25T14:54:46;9.80;99.90
21216;DHT22;10765;50.954;5.322;2024-01-25T14:57:13;9.80;99.90
21216;DHT22;10765;50.954;5.322;2024-01-25T14:59:40;9.80;99.90
21216;DHT22;10765;50.954;5.322;2024-01-25T15:02:08;9.80;99.90
21216;DHT22;10765;50.954;5.322;2024-01-25T15:04:36;9.80;99.90
21216;DHT22;10765;50.954;5.322;2024-01-25T15:07:03;9.90;99.90
21216;DHT22;10765;50.954;5.322;2024-01-25T15:09:32;9.80;99.90
21216;DHT22;10765;50.954;5.322;2024-01-25T15:11:59;9.70;99.90
21216;DHT22;10765;50.954;5.322;2024-01-25T15:14:26;9.80;99.90
21216;DHT22;10765;50.954;5.322;2024-01-25T15:16:52;9.80;99.90
21216;DHT22;10765;50.954;5.322;2024-01-25T15:19:19;9.90;99.90
21216;DHT22;10765;50.954;5.322;2024-01-25T15:21:48;9.90;99.90
21216;DHT22;10765;50.954;5.322;2024-01-25T15:24:14;9.90;99.90
21216;DHT22;10765;50.954;5.322;2024-01-25T15:26:42;9.90;99.90
21216;DHT22;10765;50.954;5.322;2024-01-25T15:29:09;10.00;99.90
21216;DHT22;10765;50.954;5.322;2024-01-25T15:31:36;10.20;99.90
21216;DHT22;10765;50.954;5.322;2024-01-25T15:34:03;10.20;99.90
21216;DHT22;10765;50.954;5.322;2024-01-25T15:36:30;10.20;56.90
21216;DHT22;10765;50.954;5.322;2024-01-25T15:38:58;10.00;99.90
21216;DHT22;10765;50.954;5.322;2024-01-25T15:41:25;9.90;1.00
21216;DHT22;10765;50.954;5.322;2024-01-25T15:43:54;10.10;14.50
21216;DHT22;10765;50.954;5.322;2024-01-25T15:46:21;10.10;91.00
21216;DHT22;10765;50.954;5.322;2024-01-25T15:48:48;9.90;1.00
21216;DHT22;10765;50.954;5.322;2024-01-25T15:51:16;9.90;1.00